Terminal Aerodrome Forecast
Issued by NWS

Home | Current Version | Previous Version | Text Only | Print | Product List | Glossary On
Versions: 1 2 3 4 5 6 7 8 9 10 11 12 13 14
000
FTUS44 KCRP 232300
TAFLRD
TAF
KLRD 232336Z 2400/2424 14007KT P6SM SCT050
     FM240700 14008KT P6SM SKC
     FM241800 11010KT P6SM FEW060=

USA.gov is the U.S. government's official web portal to all federal, state and local government web resources and services.